Startpagina
METAR-TAF:

METAR-TAF

Vliegvelden :

Fairbanks, Alaska, Verenigde Staten

breedte: 64-48-14N, lengte: 147-52-34W, hoogte: 132 m

Actueel weer

Dit bericht is 28 minuten geleden gemaakt, om 11:53 UTC
Wind 4 kt uit het noordoosten
Temperatuur -17°C
Vochtigheid 92%
Druk 996 hPa
Zicht: 16.1 km
Onbewolkt

METAR: PAFA 211153Z 05004KT 10SM CLR M17/M18 A2940 RMK AO2 SLP969 T11671183 11144 21167 58001 $

Tijdstip: 04:21 (12:21 UTC)

Verwachting

Dit bericht is 57 minuten geleden gemaakt, om 11:24 UTC
Verwachting geldig van 21 om 12 UTC tot 22 om 18 UTC
Wind 5 kt uit het noordoosten
Zicht: 10 km
Weinig wolken op 7000 ft
Van 21 om 1500 UTC
Wind 2 kt uit variabele richting
Zicht: 3.2 km
Verspreide wolken op 400 ft
nevel
Van 21 om 1900 UTC
Wind 3 kt uit variabele richting
Zicht: 10 km
Weinig wolken op 500 ft
Verspreide wolken op 8000 ft

TAF: PAFA 211124Z 2112/2218 04005KT P6SM FEW070 FM211500 VRB02KT 2SM BR SCT004 FM211900 VRB03KT P6SM FEW005 SCT080

Waarnemingen en weersverwachtingen van meer dan 4000 vliegvelden (METAR en TAF).

De beschikbare stations zijn de gele en rode punten op de kaart.

Ga met uw muis naar het station om de naam te zien.

Klik dan om waarnemingen en weersverwachtingen te zien.

kaart wijzigen: klik op de groene knoppen met een zwart kruis om in te zoomen, op de groene knop met een streepje om uit te zoomen of op de groene pijlen voor aangrenzende kaarten.


METAR-TAF: